Time;durP1;ratioP1;P1;durP2;ratioP2;P2;SDS_P1;SDS_P2;PMS_P1;PMS_P2;Temp;Humidity;BMP_temperature;BMP_pressure;BME280_temperature;BME280_humidity;BME280_pressure;Samples;Min_cycle;Max_cycle;Signal;HPM_P1;HPM_P2
2023/12/21 00:00:58;;;;;;;5.30;3.28;;;20.80;52.10;;;;;;10462805;28;20041;-42
2023/12/21 00:06:01;;;;;;;3.78;3.20;;;20.90;52.10;;;;;;10474505;28;20124;-45
2023/12/21 00:11:02;;;;;;;5.15;3.10;;;20.80;52.10;;;;;;10468054;28;20498;-44
2023/12/21 00:16:04;;;;;;;4.75;2.92;;;20.80;52.60;;;;;;10463389;28;20501;-43
2023/12/21 00:21:07;;;;;;;4.28;3.20;;;20.60;52.20;;;;;;10464084;28;20135;-43
2023/12/21 00:26:09;;;;;;;5.32;3.00;;;20.40;52.50;;;;;;10465220;28;20140;-43
2023/12/21 00:31:11;;;;;;;5.03;2.95;;;20.60;52.10;;;;;;10469697;28;20045;-43
2023/12/21 00:36:17;;;;;;;3.33;2.58;;;20.60;52.00;;;;;;10470595;28;20477;-46
2023/12/21 00:41:19;;;;;;;3.75;2.90;;;20.50;52.30;;;;;;10473373;28;20128;-43
2023/12/21 00:46:20;;;;;;;4.25;2.90;;;20.40;52.10;;;;;;10474707;28;20131;-43
2023/12/21 00:51:23;;;;;;;5.97;3.08;;;20.30;52.20;;;;;;10473179;28;20139;-43
2023/12/21 00:56:25;;;;;;;3.35;2.60;;;20.40;52.00;;;;;;10478528;28;20054;-42
2023/12/21 01:01:27;;;;;;;3.63;2.45;;;20.40;52.30;;;;;;10469721;28;20127;-43
2023/12/21 01:06:29;;;;;;;5.00;2.53;;;20.30;52.30;;;;;;10468398;28;20052;-44
2023/12/21 01:11:31;;;;;;;4.15;2.97;;;20.40;52.10;;;;;;10469328;28;20044;-42
2023/12/21 01:16:33;;;;;;;3.20;2.25;;;20.30;52.20;;;;;;10471822;28;20550;-44
2023/12/21 01:21:37;;;;;;;4.00;2.60;;;20.20;52.40;;;;;;10474386;28;20140;-43
2023/12/21 01:26:39;;;;;;;4.03;2.67;;;20.20;52.40;;;;;;10469060;28;20107;-46
2023/12/21 01:31:40;;;;;;;4.53;2.20;;;20.10;52.60;;;;;;10467999;28;20132;-42
2023/12/21 01:36:45;;;;;;;3.25;2.10;;;20.10;52.60;;;;;;10468801;28;20485;-42
2023/12/21 01:41:46;;;;;;;3.47;2.25;;;20.10;52.50;;;;;;10473375;28;20148;-44
2023/12/21 01:46:48;;;;;;;3.50;2.30;;;20.00;52.90;;;;;;10469382;28;20580;-44
2023/12/21 01:51:51;;;;;;;3.97;2.40;;;20.00;52.80;;;;;;10469727;28;20206;-42
2023/12/21 01:56:52;;;;;;;3.33;2.45;;;20.00;52.70;;;;;;10466473;28;20159;-43
2023/12/21 02:01:54;;;;;;;3.33;2.03;;;19.90;52.70;;;;;;10471843;28;20140;-42
2023/12/21 02:06:57;;;;;;;2.85;1.73;;;19.80;53.00;;;;;;10469919;28;20131;-42
2023/12/21 02:11:59;;;;;;;2.90;1.92;;;19.80;53.10;;;;;;10463077;28;20127;-45
2023/12/21 02:17:02;;;;;;;3.50;2.10;;;19.80;52.90;;;;;;10466172;28;20131;-42
2023/12/21 02:22:05;;;;;;;2.55;2.00;;;19.80;52.80;;;;;;10468154;28;20136;-43
2023/12/21 02:27:08;;;;;;;3.08;1.98;;;19.70;52.90;;;;;;10471349;28;20143;-42
2023/12/21 02:32:10;;;;;;;3.65;1.80;;;19.80;52.80;;;;;;10465322;28;20144;-44
2023/12/21 02:37:11;;;;;;;4.05;2.08;;;19.80;52.80;;;;;;10467917;28;20136;-42
2023/12/21 02:42:14;;;;;;;5.07;1.80;;;19.80;52.60;;;;;;10466037;28;20123;-42
2023/12/21 02:47:16;;;;;;;2.63;1.90;;;19.70;52.90;;;;;;10466289;28;20515;-42
2023/12/21 02:52:17;;;;;;;3.58;1.83;;;19.70;53.00;;;;;;10465755;28;20143;-45
2023/12/21 02:57:20;;;;;;;3.05;1.88;;;19.70;53.00;;;;;;10467504;28;20136;-46
2023/12/21 03:02:22;;;;;;;3.42;1.80;;;19.60;53.20;;;;;;10468331;28;20167;-42
2023/12/21 03:07:24;;;;;;;2.58;1.50;;;19.50;53.20;;;;;;10466808;28;20754;-42
2023/12/21 03:12:27;;;;;;;3.42;1.80;;;19.70;52.90;;;;;;10468883;28;20127;-44
2023/12/21 03:17:28;;;;;;;3.13;1.75;;;19.60;52.90;;;;;;10469002;28;20140;-42
2023/12/21 03:22:30;;;;;;;2.85;1.50;;;19.70;52.90;;;;;;10468913;28;20120;-46
2023/12/21 03:27:33;;;;;;;2.33;1.58;;;19.60;53.00;;;;;;10467461;28;20486;-46
2023/12/21 03:32:35;;;;;;;2.45;1.58;;;19.50;53.20;;;;;;10461787;28;20049;-45
2023/12/21 03:37:38;;;;;;;2.63;1.67;;;19.40;53.40;;;;;;10473583;28;20053;-42
2023/12/21 03:42:40;;;;;;;2.35;1.40;;;19.50;53.10;;;;;;10468074;28;20049;-43
2023/12/21 03:47:42;;;;;;;2.88;1.63;;;19.60;53.00;;;;;;10468515;28;20132;-42
2023/12/21 03:52:44;;;;;;;2.83;1.40;;;19.50;53.10;;;;;;10467105;28;20135;-42
2023/12/21 03:57:47;;;;;;;2.85;1.48;;;19.50;53.00;;;;;;10468296;28;20136;-46
2023/12/21 04:02:48;;;;;;;2.83;1.60;;;19.40;52.90;;;;;;10475297;28;20044;-42
2023/12/21 04:07:50;;;;;;;3.85;1.40;;;19.60;53.00;;;;;;10475861;28;20135;-43
2023/12/21 04:12:53;;;;;;;2.83;1.40;;;20.10;52.00;;;;;;10473055;28;20566;-42
2023/12/21 04:17:55;;;;;;;2.05;1.30;;;20.20;51.80;;;;;;10473308;28;20132;-43
2023/12/21 04:22:56;;;;;;;2.95;1.30;;;20.20;52.10;;;;;;10476781;28;20071;-43
2023/12/21 04:27:59;;;;;;;1.85;1.40;;;20.40;51.70;;;;;;10474574;28;20751;-45
2023/12/21 04:33:01;;;;;;;2.58;1.48;;;20.50;51.90;;;;;;10480494;28;20231;-43
2023/12/21 04:38:03;;;;;;;1.95;1.38;;;20.60;51.90;;;;;;10477699;28;20209;-44
2023/12/21 04:43:07;;;;;;;1.98;1.30;;;20.90;51.70;;;;;;10476217;28;20475;-45
2023/12/21 04:48:08;;;;;;;2.70;1.50;;;21.00;51.60;;;;;;10480220;28;20087;-48
2023/12/21 04:53:10;;;;;;;1.42;1.20;;;21.20;51.20;;;;;;10480854;28;20493;-46
2023/12/21 04:58:13;;;;;;;2.17;1.23;;;21.40;50.90;;;;;;10484914;28;20052;-46
2023/12/21 05:03:14;;;;;;;2.47;1.38;;;21.50;50.60;;;;;;10475584;28;20094;-46
2023/12/21 05:08:16;;;;;;;1.55;1.10;;;21.60;50.50;;;;;;10481141;28;20128;-45
2023/12/21 05:13:19;;;;;;;1.08;0.95;;;21.60;50.40;;;;;;10478113;28;20040;-47
2023/12/21 05:18:21;;;;;;;1.90;1.00;;;21.60;50.40;;;;;;10471693;28;20075;-48
2023/12/21 05:23:22;;;;;;;1.70;1.00;;;21.50;50.50;;;;;;10466567;28;20127;-45
2023/12/21 05:28:25;;;;;;;1.45;1.00;;;21.60;50.60;;;;;;10481523;28;20557;-45
2023/12/21 05:33:27;;;;;;;1.85;1.10;;;21.70;50.50;;;;;;10482593;28;20040;-43
2023/12/21 05:38:29;;;;;;;1.42;0.93;;;21.80;50.30;;;;;;10473189;28;20140;-46
2023/12/21 05:43:32;;;;;;;1.70;1.00;;;21.90;50.20;;;;;;10470318;28;20037;-46
2023/12/21 05:48:34;;;;;;;2.10;1.00;;;21.90;50.20;;;;;;10478161;28;20131;-44
2023/12/21 05:53:35;;;;;;;1.15;0.95;;;22.00;50.10;;;;;;10475917;28;20146;-48
2023/12/21 05:58:38;;;;;;;2.05;0.80;;;22.00;50.20;;;;;;10479252;28;20135;-46
2023/12/21 06:03:40;;;;;;;1.23;0.70;;;22.10;50.40;;;;;;10463123;28;20128;-46
2023/12/21 06:08:41;;;;;;;1.17;0.90;;;21.90;50.50;;;;;;10467122;28;20460;-46
2023/12/21 06:13:45;;;;;;;0.80;0.50;;;21.80;50.30;;;;;;10474680;28;20140;-44
2023/12/21 06:18:48;;;;;;;0.73;0.47;;;21.90;49.80;;;;;;10471486;28;20131;-46
2023/12/21 06:23:50;;;;;;;0.75;0.60;;;21.80;49.60;;;;;;10476653;28;20045;-45
2023/12/21 06:28:53;;;;;;;0.40;0.40;;;21.90;49.50;;;;;;10468724;28;20659;-46
2023/12/21 06:33:54;;;;;;;0.80;0.50;;;21.90;49.30;;;;;;10466350;28;20040;-44
2023/12/21 06:38:56;;;;;;;0.95;0.63;;;21.80;49.60;;;;;;10464427;28;20585;-46
2023/12/21 06:43:59;;;;;;;1.75;0.50;;;21.80;49.50;;;;;;10468434;28;20148;-45
2023/12/21 06:49:00;;;;;;;1.02;0.60;;;21.80;49.40;;;;;;10469064;28;20156;-46
2023/12/21 06:54:02;;;;;;;0.80;0.50;;;21.70;49.80;;;;;;10466612;28;20718;-46
2023/12/21 06:59:05;;;;;;;1.40;0.60;;;21.70;50.00;;;;;;10473237;28;20128;-45
2023/12/21 07:04:08;;;;;;;3.70;0.68;;;21.80;50.50;;;;;;10468845;28;20494;-48
2023/12/21 07:09:10;;;;;;;4.85;0.75;;;21.80;51.60;;;;;;10469030;28;20087;-48
2023/12/21 07:14:13;;;;;;;2.08;0.77;;;21.80;52.60;;;;;;10464084;28;20044;-46
2023/12/21 07:19:14;;;;;;;5.15;0.80;;;21.90;53.00;;;;;;10465320;28;20136;-45
2023/12/21 07:24:16;;;;;;;3.13;0.90;;;21.70;54.20;;;;;;10472846;28;20151;-45
2023/12/21 07:29:19;;;;;;;1.10;0.70;;;21.70;53.90;;;;;;10474497;28;20060;-42
2023/12/21 07:34:21;;;;;;;6.50;1.00;;;21.40;53.50;;;;;;10467350;28;20131;-45
2023/12/21 07:39:23;;;;;;;7.85;1.40;;;21.30;54.10;;;;;;10466751;28;20049;-43
2023/12/21 07:44:26;;;;;;;10.55;2.28;;;21.30;54.60;;;;;;10466797;28;20119;-43
2023/12/21 07:49:27;;;;;;;13.88;1.67;;;21.10;55.40;;;;;;10467030;28;20053;-43
2023/12/21 07:54:29;;;;;;;22.92;4.13;;;21.10;56.00;;;;;;10480012;28;20136;-43
2023/12/21 07:59:32;;;;;;;19.52;5.35;;;21.10;55.90;;;;;;10467069;28;20140;-44
2023/12/21 08:04:33;;;;;;;25.98;4.85;;;21.20;56.00;;;;;;10465374;28;20127;-47
2023/12/21 08:09:35;;;;;;;21.48;4.78;;;21.10;55.80;;;;;;10474903;28;20044;-45
2023/12/21 08:14:38;;;;;;;15.05;3.78;;;20.90;56.00;;;;;;10471873;28;20130;-43
2023/12/21 08:19:40;;;;;;;10.45;3.20;;;21.00;55.70;;;;;;10469172;28;20136;-44
2023/12/21 08:24:41;;;;;;;11.98;3.38;;;21.00;55.70;;;;;;10463957;28;20132;-45
2023/12/21 08:29:44;;;;;;;9.93;2.80;;;21.40;54.80;;;;;;10471684;28;20131;-45
2023/12/21 08:34:46;;;;;;;8.38;2.63;;;21.40;54.70;;;;;;10470606;28;20128;-47
2023/12/21 08:39:47;;;;;;;8.80;1.98;;;21.10;55.60;;;;;;10458897;28;20471;-44
2023/12/21 08:44:50;;;;;;;6.28;1.67;;;21.20;55.70;;;;;;10477629;28;20048;-43
2023/12/21 08:49:52;;;;;;;6.68;2.42;;;21.30;55.50;;;;;;10468834;28;20135;-43
2023/12/21 08:54:53;;;;;;;5.75;2.45;;;21.60;55.30;;;;;;10472782;28;20740;-48
2023/12/21 08:59:56;;;;;;;4.75;2.50;;;21.90;54.80;;;;;;10477829;28;20128;-44
2023/12/21 09:04:58;;;;;;;6.10;2.55;;;22.20;54.20;;;;;;10477953;28;20124;-46
2023/12/21 09:10:00;;;;;;;5.35;2.65;;;22.30;53.90;;;;;;10483224;28;20056;-47
2023/12/21 09:15:04;;;;;;;3.78;3.00;;;22.50;53.40;;;;;;10467678;28;20051;-43
2023/12/21 09:20:08;;;;;;;3.67;2.72;;;22.70;53.10;;;;;;10478077;28;20159;-44
2023/12/21 09:25:10;;;;;;;2.88;2.53;;;22.70;52.80;;;;;;10470303;28;20049;-45
2023/12/21 09:30:14;;;;;;;4.82;2.97;;;22.80;52.60;;;;;;10475169;28;20208;-46
2023/12/21 09:35:16;;;;;;;7.93;2.30;;;22.80;52.30;;;;;;10482413;28;20722;-45
2023/12/21 09:40:17;;;;;;;5.63;2.75;;;22.90;52.50;;;;;;10472823;28;20059;-46
2023/12/21 09:45:20;;;;;;;6.22;2.72;;;23.00;51.60;;;;;;10472800;28;20120;-46
2023/12/21 09:50:22;;;;;;;4.90;3.40;;;23.00;51.40;;;;;;10470654;28;20047;-47
2023/12/21 09:55:24;;;;;;;4.50;3.50;;;23.20;51.20;;;;;;10470404;28;20056;-46
2023/12/21 10:00:29;;;;;;;10.85;3.85;;;23.10;51.50;;;;;;10477297;28;20119;-46
2023/12/21 10:05:30;;;;;;;7.38;4.40;;;23.50;51.10;;;;;;10478059;28;20163;-46
2023/12/21 10:10:32;;;;;;;6.13;4.20;;;23.40;51.40;;;;;;10466727;28;20136;-43
2023/12/21 10:15:35;;;;;;;5.05;3.75;;;23.20;51.90;;;;;;10476781;28;20132;-45
2023/12/21 10:20:37;;;;;;;4.10;3.42;;;23.30;52.00;;;;;;10469836;28;20160;-44
2023/12/21 10:25:38;;;;;;;5.38;3.58;;;23.40;52.00;;;;;;10467241;28;20488;-45
2023/12/21 10:30:41;;;;;;;3.63;3.15;;;23.50;51.70;;;;;;10461536;28;20074;-45
2023/12/21 10:35:43;;;;;;;4.68;3.00;;;23.50;51.60;;;;;;10475533;28;20135;-45
2023/12/21 10:40:45;;;;;;;3.75;2.80;;;23.60;51.50;;;;;;10476065;28;20136;-44
2023/12/21 10:45:48;;;;;;;2.67;2.47;;;23.60;51.40;;;;;;10463309;28;20132;-44
2023/12/21 10:50:50;;;;;;;3.80;2.70;;;23.80;51.20;;;;;;10467427;28;20480;-43
2023/12/21 10:55:52;;;;;;;7.25;2.65;;;23.90;51.10;;;;;;10464590;28;20128;-43
2023/12/21 11:00:56;;;;;;;5.32;2.53;;;23.80;51.30;;;;;;10472469;28;20463;-51
2023/12/21 11:05:57;;;;;;;3.80;2.50;;;24.00;51.00;;;;;;10471237;28;20052;-45
2023/12/21 11:10:59;;;;;;;4.47;2.72;;;23.80;51.40;;;;;;10460395;28;20414;-46
2023/12/21 11:16:02;;;;;;;3.38;2.55;;;23.90;51.10;;;;;;10460449;28;20135;-45
2023/12/21 11:21:04;;;;;;;3.35;2.20;;;24.00;50.90;;;;;;10463184;28;20136;-49
2023/12/21 11:26:06;;;;;;;2.53;2.20;;;24.00;50.80;;;;;;10472482;28;20128;-46
2023/12/21 11:31:14;;;;;;;2.67;2.00;;;24.10;50.50;;;;;;10464203;28;20098;-50
2023/12/21 11:36:25;;;;;;;2.17;1.98;;;24.10;50.30;;;;;;10464323;28;20052;-46
2023/12/21 11:41:27;;;;;;;2.33;1.98;;;24.20;50.10;;;;;;10464761;28;20054;-47
2023/12/21 11:46:31;;;;;;;1.85;1.40;;;24.20;50.00;;;;;;10472499;28;20045;-45
2023/12/21 11:51:33;;;;;;;2.75;1.73;;;24.20;48.70;;;;;;10470212;28;20132;-45
2023/12/21 11:56:35;;;;;;;1.92;1.45;;;24.30;47.70;;;;;;10461924;28;20064;-45
2023/12/21 12:01:38;;;;;;;2.15;1.30;;;24.30;47.00;;;;;;10466229;28;20049;-45
2023/12/21 12:06:40;;;;;;;2.85;1.50;;;24.30;46.70;;;;;;10470442;28;20055;-46
2023/12/21 12:11:41;;;;;;;3.33;1.95;;;24.30;47.30;;;;;;10477354;28;20041;-47
2023/12/21 12:16:44;;;;;;;2.65;1.55;;;24.20;47.60;;;;;;10464078;28;20124;-50
2023/12/21 12:21:46;;;;;;;1.42;1.23;;;24.40;47.90;;;;;;10472448;28;20049;-45
2023/12/21 12:26:47;;;;;;;3.15;1.48;;;24.30;48.20;;;;;;10467913;28;20041;-46
2023/12/21 12:31:50;;;;;;;3.95;1.50;;;24.30;48.70;;;;;;10474132;28;20132;-48
2023/12/21 12:36:55;;;;;;;2.80;1.40;;;24.50;48.10;;;;;;10469407;28;20052;-45
2023/12/21 12:41:57;;;;;;;3.80;1.60;;;24.60;48.30;;;;;;10470148;28;20168;-45
2023/12/21 12:47:00;;;;;;;3.45;1.50;;;24.50;48.60;;;;;;10474181;28;20434;-46
2023/12/21 12:52:02;;;;;;;3.85;1.45;;;24.70;48.80;;;;;;10473320;28;20135;-47
2023/12/21 12:57:05;;;;;;;2.22;1.30;;;24.80;48.40;;;;;;10476082;28;20056;-47
2023/12/21 13:02:08;;;;;;;6.75;1.52;;;24.70;48.90;;;;;;10475169;28;20102;-47
2023/12/21 13:07:10;;;;;;;3.90;1.70;;;24.90;49.00;;;;;;10467736;28;20135;-44
2023/12/21 13:12:12;;;;;;;7.18;1.50;;;24.50;50.30;;;;;;10464232;28;20081;-44
2023/12/21 13:17:16;;;;;;;7.35;1.60;;;24.40;50.70;;;;;;10463099;28;20098;-47
2023/12/21 13:22:18;;;;;;;5.15;1.45;;;24.20;50.60;;;;;;10474440;28;20134;-45
2023/12/21 13:27:19;;;;;;;4.47;1.50;;;24.00;51.10;;;;;;10474812;28;20045;-46
2023/12/21 13:32:24;;;;;;;3.78;1.30;;;23.90;51.30;;;;;;10474844;28;20103;-44
2023/12/21 13:37:26;;;;;;;4.88;1.45;;;23.80;51.50;;;;;;10477679;28;20057;-42
2023/12/21 13:42:27;;;;;;;5.43;1.63;;;23.80;51.50;;;;;;10473196;28;20562;-42
2023/12/21 13:47:32;;;;;;;4.70;1.38;;;23.80;51.60;;;;;;10476316;28;20077;-43
2023/12/21 13:52:34;;;;;;;4.82;1.50;;;23.80;51.60;;;;;;10466671;28;20056;-44
2023/12/21 13:57:36;;;;;;;4.18;1.50;;;23.80;51.50;;;;;;10475165;28;20160;-43
2023/12/21 14:02:38;;;;;;;2.40;1.20;;;23.80;51.60;;;;;;10472342;28;20048;-44
2023/12/21 14:07:40;;;;;;;4.10;1.30;;;23.80;51.50;;;;;;10478708;28;20080;-43
2023/12/21 14:12:42;;;;;;;2.83;1.08;;;23.80;51.40;;;;;;10476163;28;20136;-43
2023/12/21 14:17:45;;;;;;;3.15;1.30;;;23.90;51.30;;;;;;10469504;28;20136;-43
2023/12/21 14:22:47;;;;;;;2.65;1.20;;;23.90;51.10;;;;;;10468224;28;20132;-45
2023/12/21 14:27:48;;;;;;;4.80;1.48;;;24.00;51.00;;;;;;10474133;28;20558;-45
2023/12/21 14:32:52;;;;;;;3.00;1.20;;;23.90;51.00;;;;;;10472079;28;20139;-48
2023/12/21 14:37:54;;;;;;;2.30;1.20;;;23.90;51.70;;;;;;10476657;28;20053;-44
2023/12/21 14:42:55;;;;;;;2.72;1.30;;;23.90;51.10;;;;;;10469426;28;20057;-43
2023/12/21 14:47:58;;;;;;;2.47;1.17;;;23.80;51.10;;;;;;10473647;28;20139;-46
2023/12/21 14:53:00;;;;;;;3.15;1.20;;;23.90;51.00;;;;;;10480331;28;20132;-42
2023/12/21 14:58:01;;;;;;;2.35;1.08;;;23.80;51.00;;;;;;10473895;28;20076;-47
2023/12/21 15:03:05;;;;;;;1.95;1.10;;;23.80;51.00;;;;;;10465545;28;20132;-43
2023/12/21 15:08:06;;;;;;;3.35;1.38;;;23.80;51.00;;;;;;10463904;28;20493;-44
2023/12/21 15:13:09;;;;;;;1.67;1.08;;;23.80;51.00;;;;;;10469675;28;20136;-44
2023/12/21 15:18:12;;;;;;;2.60;1.08;;;23.90;51.00;;;;;;10478584;28;20060;-44
2023/12/21 15:23:14;;;;;;;1.77;1.08;;;23.80;51.10;;;;;;10469572;28;20132;-43
2023/12/21 15:28:16;;;;;;;3.15;1.35;;;23.90;50.80;;;;;;10467390;28;20127;-42
2023/12/21 15:33:19;;;;;;;1.88;1.00;;;23.80;50.90;;;;;;10470359;28;20098;-43
2023/12/21 15:38:21;;;;;;;3.08;1.30;;;23.90;51.00;;;;;;10462785;28;20136;-43
2023/12/21 15:43:22;;;;;;;2.65;1.20;;;23.80;50.80;;;;;;10477343;28;20052;-42
2023/12/21 15:48:25;;;;;;;1.77;1.08;;;23.80;50.90;;;;;;10464109;28;20183;-42
2023/12/21 15:53:27;;;;;;;2.33;1.02;;;23.90;51.00;;;;;;10473868;28;20498;-43
2023/12/21 15:58:28;;;;;;;2.22;1.27;;;23.90;50.90;;;;;;10476616;28;20048;-45
2023/12/21 16:03:31;;;;;;;2.83;1.30;;;23.80;50.80;;;;;;10484331;28;20417;-42
2023/12/21 16:08:33;;;;;;;2.60;1.20;;;23.90;50.70;;;;;;10482486;28;20080;-43
2023/12/21 16:13:35;;;;;;;1.92;1.10;;;23.90;50.80;;;;;;10473832;28;20135;-43
2023/12/21 16:18:38;;;;;;;2.15;1.25;;;23.90;50.70;;;;;;10474715;28;20076;-42
2023/12/21 16:23:39;;;;;;;3.88;1.40;;;24.00;50.70;;;;;;10470946;28;20102;-44
2023/12/21 16:28:42;;;;;;;3.15;1.30;;;23.90;50.70;;;;;;10480717;28;20140;-49
2023/12/21 16:33:45;;;;;;;2.15;1.08;;;24.00;50.60;;;;;;10485052;28;20049;-45
2023/12/21 16:38:47;;;;;;;3.28;1.48;;;23.90;50.60;;;;;;10473747;28;20143;-45
2023/12/21 16:43:49;;;;;;;3.60;1.52;;;23.90;50.50;;;;;;10478087;28;20560;-45
2023/12/21 16:48:52;;;;;;;3.78;1.60;;;24.00;50.50;;;;;;10480875;28;20143;-43
2023/12/21 16:53:54;;;;;;;2.60;1.13;;;24.00;50.40;;;;;;10476630;28;20135;-43
2023/12/21 16:58:55;;;;;;;3.38;1.50;;;24.00;50.40;;;;;;10477624;28;20136;-43
2023/12/21 17:03:58;;;;;;;3.13;1.40;;;24.00;50.10;;;;;;10470982;28;20459;-43
2023/12/21 17:09:00;;;;;;;2.75;1.27;;;24.00;50.30;;;;;;10475652;28;20140;-45
2023/12/21 17:14:02;;;;;;;3.42;1.60;;;24.00;50.30;;;;;;10481395;28;20139;-47
2023/12/21 17:19:05;;;;;;;3.35;1.40;;;24.00;50.30;;;;;;10472765;28;20157;-42
2023/12/21 17:24:07;;;;;;;4.00;1.70;;;24.10;49.80;;;;;;10467179;28;20563;-42
2023/12/21 17:29:08;;;;;;;4.72;1.40;;;24.00;49.80;;;;;;10467708;28;20048;-48
2023/12/21 17:34:11;;;;;;;3.10;1.42;;;24.00;49.90;;;;;;10473355;28;20040;-43
2023/12/21 17:39:13;;;;;;;3.80;1.50;;;24.10;49.80;;;;;;10479841;28;20049;-45
2023/12/21 17:44:14;;;;;;;4.30;1.83;;;24.00;49.50;;;;;;10474213;28;20474;-42
2023/12/21 17:49:17;;;;;;;3.20;1.38;;;24.00;49.40;;;;;;10473313;28;20147;-42
2023/12/21 17:54:21;;;;;;;3.55;1.50;;;24.00;49.40;;;;;;10468924;28;20053;-42
2023/12/21 17:59:23;;;;;;;5.40;2.10;;;24.00;49.50;;;;;;10481254;28;20503;-43
2023/12/21 18:04:26;;;;;;;4.07;1.67;;;24.00;49.40;;;;;;10477860;28;20052;-43
2023/12/21 18:09:27;;;;;;;2.58;1.40;;;24.10;49.30;;;;;;10466936;28;20139;-43
2023/12/21 18:14:29;;;;;;;5.38;1.90;;;24.10;49.20;;;;;;10468740;28;20041;-44
2023/12/21 18:19:32;;;;;;;7.13;2.20;;;24.40;47.90;;;;;;10469489;28;20091;-47
2023/12/21 18:24:34;;;;;;;17.08;3.75;;;24.40;48.20;;;;;;10464547;28;20131;-44
2023/12/21 18:29:36;;;;;;;13.15;6.30;;;24.50;47.70;;;;;;10472675;28;20483;-43
2023/12/21 18:34:39;;;;;;;18.05;7.82;;;24.50;47.70;;;;;;10466037;28;20127;-46
2023/12/21 18:39:40;;;;;;;18.33;9.85;;;24.60;47.90;;;;;;10468253;28;20049;-47
2023/12/21 18:44:42;;;;;;;26.52;13.70;;;24.50;48.10;;;;;;10470651;28;20135;-43
2023/12/21 18:49:45;;;;;;;25.85;14.18;;;24.60;47.70;;;;;;10467662;28;20041;-44
2023/12/21 18:54:47;;;;;;;32.88;15.55;;;24.60;47.40;;;;;;10461568;28;20045;-43
2023/12/21 18:59:49;;;;;;;28.02;16.50;;;24.50;46.80;;;;;;10460631;28;20418;-42
2023/12/21 19:04:51;;;;;;;27.38;16.77;;;24.30;47.40;;;;;;10460977;28;20127;-46
2023/12/21 19:09:53;;;;;;;28.52;17.92;;;24.40;47.50;;;;;;10460512;28;20139;-42
2023/12/21 19:14:55;;;;;;;32.67;17.27;;;24.50;47.90;;;;;;10464190;28;20131;-43
2023/12/21 19:19:58;;;;;;;29.15;19.13;;;24.60;47.60;;;;;;10465766;28;20139;-43
2023/12/21 19:24:59;;;;;;;31.90;21.20;;;24.70;47.40;;;;;;10459154;28;20041;-43
2023/12/21 19:30:02;;;;;;;34.85;25.55;;;24.80;47.30;;;;;;10457686;28;20049;-42
2023/12/21 19:35:05;;;;;;;42.47;27.77;;;24.60;47.60;;;;;;10465079;28;20069;-42
2023/12/21 19:40:08;;;;;;;43.00;28.20;;;24.80;48.00;;;;;;10456254;28;20152;-44
2023/12/21 19:45:10;;;;;;;53.65;32.58;;;24.60;48.20;;;;;;10460247;28;20053;-44
2023/12/21 19:50:13;;;;;;;63.25;34.28;;;24.70;48.90;;;;;;10461132;28;20040;-42
2023/12/21 19:55:15;;;;;;;48.80;32.30;;;24.70;49.50;;;;;;10469394;28;20745;-44
2023/12/21 20:00:17;;;;;;;49.72;31.88;;;24.70;48.90;;;;;;10477007;28;20078;-43
2023/12/21 20:05:20;;;;;;;59.63;34.30;;;24.70;48.60;;;;;;10466572;28;20041;-46
2023/12/21 20:10:22;;;;;;;55.22;36.78;;;24.60;50.30;;;;;;10460687;28;20041;-44
2023/12/21 20:15:23;;;;;;;49.50;36.58;;;24.50;49.80;;;;;;10462002;28;20045;-43
2023/12/21 20:20:27;;;;;;;52.67;37.95;;;24.60;49.30;;;;;;10471035;28;20118;-45
2023/12/21 20:25:28;;;;;;;54.58;41.25;;;24.60;49.00;;;;;;10470234;28;20047;-43
2023/12/21 20:30:32;;;;;;;61.88;43.88;;;24.60;48.80;;;;;;10461267;28;20135;-44
2023/12/21 20:35:35;;;;;;;58.03;43.75;;;24.50;48.60;;;;;;10464506;28;20414;-43
2023/12/21 20:40:37;;;;;;;57.80;42.00;;;24.30;48.90;;;;;;10474214;28;20057;-43
2023/12/21 20:45:38;;;;;;;54.88;41.20;;;24.20;49.00;;;;;;10487528;28;20047;-43
2023/12/21 20:50:41;;;;;;;54.25;41.08;;;24.10;49.10;;;;;;10474180;28;20136;-44
2023/12/21 20:55:43;;;;;;;53.67;40.22;;;23.80;49.30;;;;;;10476444;28;20051;-43
2023/12/21 21:00:45;;;;;;;49.13;37.28;;;23.80;49.30;;;;;;10470799;28;20051;-42
2023/12/21 21:05:48;;;;;;;48.65;37.35;;;23.70;49.40;;;;;;10474845;28;20132;-44
2023/12/21 21:10:50;;;;;;;50.17;36.72;;;23.50;49.50;;;;;;10482747;28;20059;-42
2023/12/21 21:15:51;;;;;;;47.67;34.47;;;23.50;49.60;;;;;;10471828;28;20063;-42
2023/12/21 21:20:54;;;;;;;51.47;30.92;;;23.50;49.00;;;;;;10475262;28;20103;-43
2023/12/21 21:25:57;;;;;;;38.58;29.20;;;23.60;48.70;;;;;;10476006;28;20146;-44
2023/12/21 21:30:59;;;;;;;35.70;27.67;;;23.50;48.80;;;;;;10471803;28;20136;-42
2023/12/21 21:36:03;;;;;;;38.10;26.30;;;23.40;48.80;;;;;;10477961;28;20040;-42
2023/12/21 21:41:07;;;;;;;29.85;24.25;;;23.70;48.20;;;;;;10466598;28;20051;-45
2023/12/21 21:46:09;;;;;;;40.75;27.73;;;23.80;47.40;;;;;;10473014;28;20415;-44
2023/12/21 21:51:12;;;;;;;32.63;24.27;;;23.50;48.10;;;;;;10474595;28;20132;-43
2023/12/21 21:56:18;;;;;;;33.03;24.00;;;23.40;48.40;;;;;;10479106;28;20072;-46
2023/12/21 22:01:19;;;;;;;32.65;23.90;;;23.20;48.60;;;;;;10475799;28;20051;-42
2023/12/21 22:06:25;;;;;;;31.95;22.95;;;23.20;48.70;;;;;;10473880;28;20048;-45
2023/12/21 22:11:27;;;;;;;34.85;22.45;;;23.20;48.40;;;;;;10471473;28;20044;-44
2023/12/21 22:16:28;;;;;;;31.67;23.15;;;23.30;48.20;;;;;;10480292;28;20156;-42
2023/12/21 22:21:32;;;;;;;30.08;23.35;;;23.30;48.10;;;;;;10466738;28;20554;-42
2023/12/21 22:26:34;;;;;;;29.48;21.65;;;23.20;48.30;;;;;;10465229;28;20045;-42
2023/12/21 22:31:36;;;;;;;28.08;20.50;;;23.50;47.50;;;;;;10476687;28;20438;-41
2023/12/21 22:36:39;;;;;;;31.38;21.33;;;23.30;47.40;;;;;;10476586;28;20044;-44
2023/12/21 22:41:40;;;;;;;25.65;20.38;;;23.10;47.60;;;;;;10479623;28;20127;-42
2023/12/21 22:46:42;;;;;;;27.73;20.55;;;23.00;47.80;;;;;;10473439;28;20570;-44
2023/12/21 22:51:47;;;;;;;29.00;20.27;;;22.90;47.50;;;;;;10463417;28;20081;-42
2023/12/21 22:56:49;;;;;;;27.63;19.75;;;22.90;47.60;;;;;;10468708;28;20075;-42
2023/12/21 23:01:50;;;;;;;27.08;19.27;;;22.70;47.90;;;;;;10473061;28;20127;-46
2023/12/21 23:06:53;;;;;;;26.95;18.55;;;22.50;48.20;;;;;;10481914;28;20572;-43
2023/12/21 23:11:55;;;;;;;25.30;18.33;;;22.30;48.40;;;;;;10476513;28;20103;-43
2023/12/21 23:16:56;;;;;;;21.75;16.80;;;22.00;49.00;;;;;;10472247;28;20127;-44
2023/12/21 23:21:59;;;;;;;22.42;16.52;;;21.70;49.30;;;;;;10472233;28;20135;-44
2023/12/21 23:27:01;;;;;;;24.80;16.63;;;21.80;49.20;;;;;;10467265;28;20155;-42
2023/12/21 23:32:03;;;;;;;19.67;14.65;;;21.70;49.20;;;;;;10467637;28;20152;-42
2023/12/21 23:37:06;;;;;;;20.77;15.30;;;21.70;49.20;;;;;;10464184;28;20473;-42
2023/12/21 23:42:07;;;;;;;20.95;14.52;;;21.50;49.50;;;;;;10472369;28;20155;-42
2023/12/21 23:47:10;;;;;;;20.27;14.07;;;21.60;48.90;;;;;;10472278;28;20164;-43
2023/12/21 23:52:13;;;;;;;16.92;13.27;;;21.60;49.00;;;;;;10473423;28;20053;-43
2023/12/21 23:57:14;;;;;;;19.15;13.45;;;21.50;49.20;;;;;;10470722;28;20132;-41
